Time;durP1;ratioP1;P1;durP2;ratioP2;P2;SDS_P1;SDS_P2;PMS_P1;PMS_P2;Temp;Humidity;BMP_temperature;BMP_pressure;BME280_temperature;BME280_humidity;BME280_pressure;Samples;Min_cycle;Max_cycle;Signal;HPM_P1;HPM_P2
2022/09/30 00:01:43;;;;;;;2.83;1.77;;;16.30;81.80;;;;;;5028016;28;20030;-80
2022/09/30 00:04:12;;;;;;;2.60;1.80;;;16.30;81.80;;;;;;5030301;28;20033;-80
2022/09/30 00:06:38;;;;;;;2.80;1.85;;;16.30;81.90;;;;;;5028879;28;20566;-79
2022/09/30 00:09:04;;;;;;;2.58;1.80;;;16.30;81.90;;;;;;5032008;28;20025;-79
2022/09/30 00:11:33;;;;;;;2.47;1.83;;;16.30;82.00;;;;;;5031275;28;20036;-79
2022/09/30 00:14:00;;;;;;;3.05;1.85;;;16.30;82.50;;;;;;5030026;28;20021;-79
2022/09/30 00:16:29;;;;;;;2.20;1.60;;;16.30;82.00;;;;;;5031631;28;20034;-80
2022/09/30 00:18:56;;;;;;;2.33;1.70;;;16.20;82.00;;;;;;5029669;28;20104;-79
2022/09/30 00:21:22;;;;;;;2.40;1.70;;;16.20;82.00;;;;;;5030572;28;20026;-79
2022/09/30 00:23:48;;;;;;;3.03;1.77;;;16.30;82.00;;;;;;5012172;28;20089;-79
2022/09/30 00:26:17;;;;;;;1.83;1.50;;;16.30;82.10;;;;;;4998226;28;20082;-79
2022/09/30 00:28:43;;;;;;;2.95;1.70;;;16.30;82.10;;;;;;5028489;28;20037;-79
2022/09/30 00:31:14;;;;;;;2.53;1.65;;;16.30;82.00;;;;;;5009614;28;20390;-79
2022/09/30 00:33:40;;;;;;;2.75;1.70;;;16.30;82.10;;;;;;4991477;28;20030;-79
2022/09/30 00:36:06;;;;;;;2.17;1.60;;;16.30;82.10;;;;;;5010118;28;20121;-79
2022/09/30 00:38:31;;;;;;;2.67;1.60;;;16.30;82.10;;;;;;5009211;28;20176;-79
2022/09/30 00:40:58;;;;;;;2.95;1.85;;;16.20;81.90;;;;;;5009441;28;20030;-79
2022/09/30 00:43:45;;;;;;;3.25;1.83;;;16.20;81.80;;;;;;4991043;28;20121;-79
2022/09/30 00:46:20;;;;;;;2.63;1.48;;;16.30;81.80;;;;;;5011692;28;20025;-79
2022/09/30 00:48:52;;;;;;;2.38;1.50;;;16.30;81.80;;;;;;5010322;28;20032;-78
2022/09/30 00:51:25;;;;;;;3.33;1.83;;;16.30;81.70;;;;;;5008270;28;20018;-78
2022/09/30 00:53:56;;;;;;;2.42;1.80;;;16.40;81.70;;;;;;5027488;28;20491;-79
2022/09/30 00:56:28;;;;;;;2.47;1.63;;;16.20;81.70;;;;;;5028074;28;20064;-79
2022/09/30 00:58:55;;;;;;;;;;;16.40;81.90;;;;;;5028392;28;20033;-79
2022/09/30 01:01:22;;;;;;;3.00;1.88;;;16.40;82.10;;;;;;5027435;28;19955;-79
2022/09/30 01:03:55;;;;;;;2.75;1.70;;;16.30;82.00;;;;;;5026783;28;20022;-78
2022/09/30 01:06:23;;;;;;;2.92;1.90;;;16.30;82.00;;;;;;5008543;28;20052;-79
2022/09/30 01:08:49;;;;;;;3.22;1.90;;;16.20;82.00;;;;;;5025766;28;20097;-78
2022/09/30 01:11:15;;;;;;;3.13;2.00;;;16.30;82.00;;;;;;5009224;28;20026;-78
2022/09/30 01:13:42;;;;;;;2.70;1.92;;;16.20;82.00;;;;;;5026980;28;20086;-79
2022/09/30 01:16:30;;;;;;;2.63;1.90;;;16.30;82.10;;;;;;5026997;28;20484;-79
2022/09/30 01:19:08;;;;;;;2.63;1.80;;;16.20;82.00;;;;;;5027017;28;20021;-78
2022/09/30 01:21:58;;;;;;;2.53;1.80;;;16.20;82.10;;;;;;5008764;28;20449;-78
2022/09/30 01:24:58;;;;;;;2.33;1.70;;;16.20;82.10;;;;;;5008905;28;20020;-78
2022/09/30 01:27:50;;;;;;;3.05;1.80;;;16.20;82.10;;;;;;5027151;28;20033;-78
2022/09/30 01:30:54;;;;;;;2.55;1.70;;;16.20;82.10;;;;;;5008986;28;20525;-78
2022/09/30 01:33:33;;;;;;;3.50;2.03;;;16.20;82.20;;;;;;5026065;28;20033;-78
2022/09/30 01:36:05;;;;;;;3.03;1.70;;;16.20;82.70;;;;;;5007778;28;20412;-78
2022/09/30 01:39:21;;;;;;;2.78;1.83;;;16.30;82.30;;;;;;5025857;28;20866;-78
2022/09/30 01:42:15;;;;;;;2.38;1.58;;;16.20;82.20;;;;;;4975066;28;20037;-78
2022/09/30 01:45:07;;;;;;;2.72;1.60;;;16.20;82.20;;;;;;5014208;28;20398;-77
2022/09/30 01:47:45;;;;;;;2.15;1.70;;;16.20;82.00;;;;;;5021195;28;20021;-77
2022/09/30 01:50:31;;;;;;;2.55;1.60;;;16.30;82.00;;;;;;5025951;28;20402;-76
2022/09/30 01:53:14;;;;;;;2.10;1.60;;;16.30;81.80;;;;;;5026037;28;20063;-77
2022/09/30 01:55:52;;;;;;;2.28;1.77;;;16.30;81.70;;;;;;5026710;28;20665;-77
2022/09/30 01:58:29;;;;;;;3.22;2.08;;;16.30;81.50;;;;;;5024703;28;20079;-78
2022/09/30 02:01:00;;;;;;;2.40;1.80;;;16.30;81.70;;;;;;5024858;28;20118;-77
2022/09/30 02:03:41;;;;;;;3.10;1.90;;;16.30;81.90;;;;;;5025922;28;20491;-77
2022/09/30 02:06:10;;;;;;;3.10;1.98;;;16.20;81.90;;;;;;5024429;28;20037;-77
2022/09/30 02:08:49;;;;;;;2.00;1.70;;;16.30;82.10;;;;;;5024533;28;20075;-77
2022/09/30 02:11:23;;;;;;;3.15;2.17;;;16.20;82.00;;;;;;5029002;28;20025;-78
2022/09/30 02:13:55;;;;;;;3.08;1.80;;;16.20;82.00;;;;;;5028253;28;20025;-78
2022/09/30 02:16:28;;;;;;;3.30;2.00;;;16.20;82.10;;;;;;5029961;28;20021;-78
2022/09/30 02:19:25;;;;;;;3.00;2.00;;;16.20;82.10;;;;;;5032550;28;20030;-78
2022/09/30 02:21:57;;;;;;;2.83;1.95;;;16.20;82.20;;;;;;5009146;28;20037;-78
2022/09/30 02:24:25;;;;;;;3.15;1.92;;;16.20;82.20;;;;;;5028956;28;20096;-77
2022/09/30 02:26:54;;;;;;;2.83;2.10;;;16.20;82.20;;;;;;5030416;28;20373;-78
2022/09/30 02:29:23;;;;;;;2.83;1.98;;;16.20;82.20;;;;;;5031645;28;20021;-79
2022/09/30 02:31:54;;;;;;;3.28;2.03;;;16.20;82.20;;;;;;5013204;28;20075;-78
2022/09/30 02:34:25;;;;;;;2.90;2.05;;;16.20;82.30;;;;;;5031036;28;20030;-78
2022/09/30 02:37:04;;;;;;;3.00;2.10;;;16.20;82.30;;;;;;5013573;28;20040;-78
2022/09/30 02:39:55;;;;;;;3.38;2.13;;;16.20;82.30;;;;;;5013282;28;20080;-78
2022/09/30 02:42:27;;;;;;;2.92;2.03;;;16.20;82.30;;;;;;5015274;28;20036;-78
2022/09/30 02:44:59;;;;;;;3.67;2.00;;;16.20;82.30;;;;;;5022362;28;20072;-77
2022/09/30 02:47:48;;;;;;;3.40;2.05;;;16.20;82.30;;;;;;5024468;28;20030;-79
2022/09/30 02:50:38;;;;;;;2.72;2.03;;;16.20;82.30;;;;;;5013050;28;20798;-77
2022/09/30 02:53:24;;;;;;;2.25;1.73;;;16.20;82.10;;;;;;5007839;28;20040;-77
2022/09/30 02:55:59;;;;;;;2.65;1.92;;;16.20;82.00;;;;;;4993853;28;20038;-77
2022/09/30 02:58:25;;;;;;;2.67;1.95;;;16.20;82.00;;;;;;4993112;28;20033;-79
2022/09/30 03:00:53;;;;;;;2.50;1.90;;;16.20;81.80;;;;;;4992837;28;20033;-77
2022/09/30 03:03:38;;;;;;;2.60;1.90;;;16.20;81.80;;;;;;4990364;28;20084;-77
2022/09/30 03:06:04;;;;;;;3.80;2.10;;;16.20;81.80;;;;;;5010310;28;20554;-78
2022/09/30 03:08:29;;;;;;;2.85;2.00;;;16.20;81.90;;;;;;4992539;28;20029;-78
2022/09/30 03:10:55;;;;;;;2.70;1.88;;;16.20;82.00;;;;;;4993754;28;20022;-78
2022/09/30 03:13:38;;;;;;;3.03;2.10;;;16.20;82.10;;;;;;5011902;28;20077;-79
2022/09/30 03:16:19;;;;;;;2.60;1.80;;;16.20;82.10;;;;;;5011699;28;20488;-78
2022/09/30 03:19:03;;;;;;;3.53;2.13;;;16.20;82.10;;;;;;5011666;28;20080;-78
2022/09/30 03:22:12;;;;;;;3.25;2.00;;;16.20;82.20;;;;;;5011146;28;20025;-77
2022/09/30 03:24:50;;;;;;;2.60;1.83;;;16.20;82.20;;;;;;5011662;28;20392;-79
2022/09/30 03:27:31;;;;;;;3.15;2.10;;;16.20;82.30;;;;;;5010618;28;20503;-79
2022/09/30 03:30:06;;;;;;;3.15;2.00;;;16.20;82.30;;;;;;4996494;28;20562;-78
2022/09/30 03:32:41;;;;;;;3.28;2.10;;;16.20;82.40;;;;;;5028149;28;20025;-78
2022/09/30 03:35:06;;;;;;;2.22;1.73;;;16.20;82.40;;;;;;5028333;28;20052;-77
2022/09/30 03:37:45;;;;;;;3.05;2.00;;;16.10;82.40;;;;;;5013854;28;20060;-77
2022/09/30 03:40:42;;;;;;;2.90;2.00;;;16.10;82.40;;;;;;5026107;28;20104;-78
2022/09/30 03:43:16;;;;;;;2.80;1.92;;;16.10;82.40;;;;;;5025261;28;20570;-78
2022/09/30 03:45:55;;;;;;;3.05;2.10;;;16.10;82.40;;;;;;5017396;28;20029;-79
2022/09/30 03:48:23;;;;;;;3.20;2.10;;;16.10;82.40;;;;;;5003711;28;20587;-79
2022/09/30 03:50:49;;;;;;;3.85;1.98;;;16.10;82.40;;;;;;5007920;28;20041;-79
2022/09/30 03:53:15;;;;;;;3.03;2.00;;;16.10;82.30;;;;;;5011717;28;20096;-78
2022/09/30 03:55:49;;;;;;;3.05;2.10;;;16.10;82.30;;;;;;5018514;28;20515;-78
2022/09/30 03:58:20;;;;;;;2.80;2.00;;;16.20;82.20;;;;;;5028490;28;20048;-78
2022/09/30 04:00:51;;;;;;;2.65;1.70;;;16.20;82.10;;;;;;5028162;28;20455;-78
2022/09/30 04:03:18;;;;;;;3.72;1.90;;;16.20;82.10;;;;;;5026233;28;20115;-78
2022/09/30 04:05:45;;;;;;;2.80;1.85;;;16.20;81.90;;;;;;5027817;28;20080;-78
2022/09/30 04:08:11;;;;;;;2.45;1.80;;;16.20;81.90;;;;;;5027701;28;20029;-78
2022/09/30 04:10:40;;;;;;;2.88;2.00;;;16.20;81.90;;;;;;5027113;28;20163;-78
2022/09/30 04:13:06;;;;;;;3.42;2.08;;;16.20;82.00;;;;;;5020861;28;20021;-78
2022/09/30 04:15:32;;;;;;;4.20;2.28;;;16.20;82.00;;;;;;5029704;28;20025;-77
2022/09/30 04:17:58;;;;;;;2.67;1.90;;;16.20;82.10;;;;;;5018385;28;20076;-77
2022/09/30 04:20:24;;;;;;;3.58;2.15;;;16.20;82.10;;;;;;5022629;28;20033;-76
2022/09/30 04:22:49;;;;;;;2.72;2.03;;;16.20;82.20;;;;;;5011072;28;20032;-76
2022/09/30 04:25:15;;;;;;;3.03;2.20;;;16.20;82.30;;;;;;4997639;28;20018;-76
2022/09/30 04:27:40;;;;;;;3.30;2.20;;;16.10;82.20;;;;;;5025720;28;20068;-76
2022/09/30 04:30:06;;;;;;;2.90;1.90;;;16.10;82.20;;;;;;5026165;28;20036;-76
2022/09/30 04:32:32;;;;;;;3.13;2.05;;;16.10;82.30;;;;;;5015792;28;20041;-76
2022/09/30 04:34:57;;;;;;;3.88;2.38;;;16.00;82.20;;;;;;5025290;28;20025;-76
2022/09/30 04:37:23;;;;;;;3.10;2.10;;;16.10;82.30;;;;;;5007873;28;20052;-76
2022/09/30 04:39:49;;;;;;;2.85;2.10;;;16.10;82.30;;;;;;5021418;28;20565;-77
2022/09/30 04:42:16;;;;;;;3.25;2.20;;;16.10;82.40;;;;;;5024407;28;20462;-76
2022/09/30 04:44:41;;;;;;;3.58;2.13;;;16.10;82.40;;;;;;5025579;28;20029;-78
2022/09/30 04:47:07;;;;;;;2.47;2.03;;;16.10;82.70;;;;;;5024314;28;20445;-77
2022/09/30 04:49:32;;;;;;;3.60;2.35;;;16.10;82.40;;;;;;5029075;28;20475;-78
2022/09/30 04:51:58;;;;;;;3.17;2.08;;;16.10;82.40;;;;;;5028926;28;20087;-78
2022/09/30 04:54:24;;;;;;;2.95;2.08;;;16.10;82.40;;;;;;5029355;28;20653;-79
2022/09/30 04:56:49;;;;;;;2.78;2.03;;;16.10;82.50;;;;;;5012151;28;20021;-78
2022/09/30 04:59:15;;;;;;;3.15;2.10;;;16.10;82.40;;;;;;5029480;28;20038;-77
2022/09/30 05:01:42;;;;;;;3.10;1.90;;;16.10;82.30;;;;;;5022288;28;20065;-78
2022/09/30 05:04:08;;;;;;;2.78;1.98;;;16.10;82.20;;;;;;5011315;28;20032;-78
2022/09/30 05:06:34;;;;;;;3.33;2.05;;;16.10;82.10;;;;;;5016947;28;20116;-77
2022/09/30 05:08:59;;;;;;;2.53;1.88;;;16.10;82.10;;;;;;5035756;28;20104;-77
2022/09/30 05:11:25;;;;;;;3.67;2.50;;;16.20;82.10;;;;;;5038054;28;20029;-78
2022/09/30 05:13:50;;;;;;;5.57;3.03;;;16.20;81.50;;;;;;5021851;28;20033;-77
2022/09/30 05:16:16;;;;;;;4.65;3.10;;;16.10;81.10;;;;;;5015401;28;20048;-79
2022/09/30 05:18:45;;;;;;;4.40;3.17;;;16.20;81.20;;;;;;5021501;28;20257;-78
2022/09/30 05:21:11;;;;;;;4.68;2.92;;;16.10;81.20;;;;;;5027490;28;20116;-80
2022/09/30 05:23:37;;;;;;;6.25;2.90;;;16.10;81.30;;;;;;5025714;28;20037;-77
2022/09/30 05:26:03;;;;;;;5.88;2.92;;;16.10;81.40;;;;;;5008948;28;20116;-78
2022/09/30 05:28:30;;;;;;;4.50;2.72;;;16.10;81.50;;;;;;5012406;28;20526;-77
2022/09/30 05:31:01;;;;;;;4.80;2.95;;;16.10;81.50;;;;;;5022844;28;20934;-79
2022/09/30 05:33:28;;;;;;;4.75;2.67;;;16.10;81.60;;;;;;5015114;28;20029;-77
2022/09/30 05:35:54;;;;;;;4.72;3.00;;;16.10;81.70;;;;;;5022164;28;20026;-78
2022/09/30 05:38:20;;;;;;;3.65;2.60;;;16.10;81.70;;;;;;5024835;28;20029;-77
2022/09/30 05:40:46;;;;;;;4.88;2.92;;;16.10;81.80;;;;;;5028106;28;20155;-77
2022/09/30 05:43:11;;;;;;;4.85;2.90;;;16.10;81.80;;;;;;5027483;28;20425;-78
2022/09/30 05:45:38;;;;;;;4.03;2.63;;;16.10;81.80;;;;;;5025817;28;20041;-78
2022/09/30 05:48:03;;;;;;;5.50;2.80;;;16.10;81.80;;;;;;5025366;28;20028;-78
2022/09/30 05:50:29;;;;;;;4.55;2.90;;;16.10;81.80;;;;;;5025276;28;20022;-78
2022/09/30 05:52:56;;;;;;;4.43;2.55;;;16.10;81.80;;;;;;5025545;28;20032;-76
2022/09/30 05:55:21;;;;;;;4.18;2.75;;;16.10;81.70;;;;;;5027722;28;20017;-76
2022/09/30 05:57:48;;;;;;;5.15;3.08;;;16.10;81.70;;;;;;5027861;28;20375;-75
2022/09/30 06:00:14;;;;;;;4.63;2.83;;;16.10;81.30;;;;;;5028356;28;20060;-76
2022/09/30 06:02:40;;;;;;;5.80;3.00;;;16.10;81.40;;;;;;5027576;28;20041;-76
2022/09/30 06:05:07;;;;;;;5.18;3.20;;;16.20;81.30;;;;;;5026826;28;20041;-76
2022/09/30 06:07:33;;;;;;;4.82;2.75;;;16.20;81.10;;;;;;5027639;28;20033;-75
2022/09/30 06:09:59;;;;;;;6.10;3.08;;;16.20;81.00;;;;;;5027006;28;20465;-75
2022/09/30 06:12:27;;;;;;;4.35;2.67;;;16.20;80.90;;;;;;5026166;28;20077;-75
2022/09/30 06:14:53;;;;;;;6.32;2.72;;;16.20;80.80;;;;;;5026507;28;20041;-76
2022/09/30 06:17:19;;;;;;;4.32;3.00;;;16.30;80.70;;;;;;5027798;28;20029;-75
2022/09/30 06:19:45;;;;;;;4.53;2.70;;;16.30;80.60;;;;;;5027788;28;20510;-75
2022/09/30 06:22:10;;;;;;;4.93;2.30;;;16.30;80.50;;;;;;5027449;28;20096;-75
2022/09/30 06:24:36;;;;;;;4.28;2.60;;;16.40;80.50;;;;;;5026415;28;20518;-76
2022/09/30 06:27:01;;;;;;;4.95;2.67;;;16.20;80.30;;;;;;5026847;28;20041;-76
2022/09/30 06:29:27;;;;;;;5.30;2.90;;;16.30;80.30;;;;;;5026517;28;20029;-76
2022/09/30 06:31:53;;;;;;;3.72;2.58;;;16.40;80.30;;;;;;5025698;28;20067;-76
2022/09/30 06:34:19;;;;;;;4.15;2.47;;;16.40;80.30;;;;;;5027669;28;20100;-76
2022/09/30 06:36:44;;;;;;;4.40;2.55;;;16.40;80.30;;;;;;5027412;28;20120;-76
2022/09/30 06:39:10;;;;;;;4.32;2.67;;;16.50;80.20;;;;;;5025937;28;20495;-76
2022/09/30 06:41:38;;;;;;;3.60;2.38;;;16.50;80.10;;;;;;5026137;28;20090;-76
2022/09/30 06:44:04;;;;;;;3.85;2.50;;;16.50;80.10;;;;;;5025726;28;20488;-76
2022/09/30 06:46:29;;;;;;;3.85;2.50;;;16.50;80.00;;;;;;5027003;28;20108;-76
2022/09/30 06:48:56;;;;;;;4.88;2.70;;;16.50;79.80;;;;;;5027348;28;20028;-76
2022/09/30 06:51:24;;;;;;;4.82;2.92;;;16.60;79.80;;;;;;5025944;28;20029;-77
2022/09/30 06:53:51;;;;;;;4.60;2.55;;;16.60;79.70;;;;;;5026979;28;20025;-76
2022/09/30 06:56:17;;;;;;;3.28;2.38;;;16.60;79.60;;;;;;5025867;28;20407;-77
2022/09/30 06:58:44;;;;;;;4.72;2.60;;;16.60;79.50;;;;;;5027563;28;20059;-76
2022/09/30 07:01:14;;;;;;;5.25;2.60;;;16.70;79.40;;;;;;5027657;28;20084;-76
2022/09/30 07:03:41;;;;;;;4.63;2.90;;;16.70;79.30;;;;;;5026062;28;20036;-75
2022/09/30 07:06:07;;;;;;;4.05;2.47;;;16.70;79.20;;;;;;5025894;28;20037;-76
2022/09/30 07:08:35;;;;;;;3.53;2.30;;;16.80;79.20;;;;;;5025089;28;20070;-76
2022/09/30 07:11:04;;;;;;;3.70;2.40;;;16.80;79.10;;;;;;5026713;28;20411;-77
2022/09/30 07:13:31;;;;;;;3.65;2.20;;;16.80;79.00;;;;;;5026454;28;20040;-76
2022/09/30 07:15:57;;;;;;;4.78;2.50;;;16.90;78.80;;;;;;5027143;28;20076;-76
2022/09/30 07:18:25;;;;;;;4.10;2.50;;;16.90;78.50;;;;;;5027088;28;20061;-75
2022/09/30 07:20:52;;;;;;;4.22;2.80;;;17.00;78.40;;;;;;5025338;28;20029;-75
2022/09/30 07:23:18;;;;;;;3.30;2.22;;;17.00;78.20;;;;;;5026809;28;20495;-77
2022/09/30 07:25:56;;;;;;;4.25;2.25;;;17.10;78.10;;;;;;5025374;28;20033;-76
2022/09/30 07:28:29;;;;;;;6.97;2.47;;;17.10;78.10;;;;;;5026573;28;20564;-76
2022/09/30 07:30:55;;;;;;;3.40;2.28;;;17.10;78.00;;;;;;5026403;28;20240;-76
2022/09/30 07:33:21;;;;;;;4.45;2.53;;;17.10;78.00;;;;;;5026189;28;20044;-75
2022/09/30 07:35:54;;;;;;;3.83;2.55;;;17.10;78.10;;;;;;5026950;28;20060;-76
2022/09/30 07:38:23;;;;;;;4.65;2.53;;;17.10;78.10;;;;;;5026939;28;20037;-76
2022/09/30 07:40:58;;;;;;;4.47;2.45;;;17.10;78.00;;;;;;5026366;28;20082;-75
2022/09/30 07:43:26;;;;;;;5.50;2.78;;;17.20;78.00;;;;;;5031509;28;20038;-76
2022/09/30 07:45:54;;;;;;;3.58;2.40;;;17.20;77.90;;;;;;5026807;28;20124;-76
2022/09/30 07:51:04;;;;;;;3.42;2.22;;;17.20;77.80;;;;;;5026703;28;20040;-76
2022/09/30 07:53:29;;;;;;;3.80;2.40;;;17.30;77.70;;;;;;5024397;28;20037;-76
2022/09/30 07:55:55;;;;;;;3.17;2.25;;;17.30;77.60;;;;;;5026059;28;20033;-75
2022/09/30 07:58:20;;;;;;;3.60;2.40;;;17.30;77.60;;;;;;5026504;28;20041;-76
2022/09/30 08:00:50;;;;;;;5.18;2.70;;;17.30;77.60;;;;;;5026264;28;20064;-75
2022/09/30 08:03:16;;;;;;;3.72;2.30;;;17.40;77.50;;;;;;5023951;28;20392;-75
2022/09/30 08:05:47;;;;;;;4.70;2.50;;;17.40;77.40;;;;;;5025101;28;20045;-77
2022/09/30 08:08:14;;;;;;;4.05;2.40;;;17.40;77.40;;;;;;5026268;28;20032;-76
2022/09/30 08:10:39;;;;;;;3.22;2.20;;;17.40;77.30;;;;;;5024911;28;20056;-76
2022/09/30 08:13:06;;;;;;;3.35;2.30;;;17.50;77.40;;;;;;5025536;28;20056;-76
2022/09/30 08:15:32;;;;;;;3.40;2.35;;;17.50;77.10;;;;;;5025783;28;20506;-76
2022/09/30 08:17:57;;;;;;;3.63;2.40;;;17.60;77.00;;;;;;5026088;28;20507;-76
2022/09/30 08:20:23;;;;;;;3.42;2.10;;;17.60;76.90;;;;;;5025624;28;20449;-76
2022/09/30 08:22:53;;;;;;;3.78;2.17;;;17.60;76.60;;;;;;5023909;28;20033;-76
2022/09/30 08:25:18;;;;;;;3.83;2.42;;;17.70;76.50;;;;;;5025937;28;20033;-75
2022/09/30 08:27:44;;;;;;;3.47;2.45;;;17.70;76.40;;;;;;5025626;28;20055;-76
2022/09/30 08:30:11;;;;;;;3.97;2.58;;;17.80;76.40;;;;;;5025692;28;20036;-76
2022/09/30 08:32:37;;;;;;;3.97;2.60;;;17.80;76.80;;;;;;5023949;28;20223;-75
2022/09/30 08:35:03;;;;;;;4.28;2.38;;;17.70;76.40;;;;;;5025642;28;20513;-76
2022/09/30 08:37:29;;;;;;;4.10;2.60;;;17.70;76.30;;;;;;5024114;28;20128;-75
2022/09/30 08:39:55;;;;;;;3.10;2.28;;;17.80;76.40;;;;;;5024213;28;20120;-75
2022/09/30 08:42:49;;;;;;;3.00;2.20;;;17.80;76.40;;;;;;5025007;28;20128;-76
2022/09/30 08:45:38;;;;;;;4.00;2.45;;;17.70;76.40;;;;;;5022558;28;20087;-75
2022/09/30 08:48:21;;;;;;;3.92;2.60;;;17.80;76.40;;;;;;5004095;28;20036;-76
2022/09/30 08:50:52;;;;;;;3.88;2.40;;;17.80;76.50;;;;;;5018941;28;20047;-75
2022/09/30 08:53:29;;;;;;;3.53;2.25;;;17.80;76.40;;;;;;5014187;28;20029;-77
2022/09/30 08:55:56;;;;;;;3.03;2.30;;;17.80;76.40;;;;;;5023411;28;20032;-75
2022/09/30 08:58:28;;;;;;;3.25;2.15;;;17.90;76.40;;;;;;5025093;28;20087;-76
2022/09/30 09:01:15;;;;;;;4.32;2.67;;;17.90;76.40;;;;;;5025031;28;20028;-76
2022/09/30 09:03:41;;;;;;;4.15;2.30;;;17.90;76.30;;;;;;5023668;28;20240;-77
2022/09/30 09:06:43;;;;;;;3.88;2.50;;;17.90;76.30;;;;;;5025511;28;20033;-76
2022/09/30 09:09:33;;;;;;;3.53;2.28;;;17.90;76.20;;;;;;5025373;28;20039;-77
2022/09/30 09:12:04;;;;;;;4.15;2.58;;;17.90;76.20;;;;;;5023746;28;20091;-77
2022/09/30 09:14:39;;;;;;;4.47;2.83;;;17.90;76.20;;;;;;5023745;28;20037;-76
2022/09/30 09:17:22;;;;;;;3.67;2.33;;;17.90;76.20;;;;;;5024015;28;20036;-77
2022/09/30 09:19:55;;;;;;;3.55;2.53;;;17.90;76.70;;;;;;5024928;28;20152;-76
2022/09/30 09:22:21;;;;;;;3.47;2.33;;;17.90;76.20;;;;;;5024758;28;20109;-77
2022/09/30 09:24:50;;;;;;;4.25;2.60;;;18.10;76.20;;;;;;5023477;28;20117;-76
2022/09/30 09:27:20;;;;;;;3.70;2.45;;;18.00;76.00;;;;;;5025679;28;20033;-76
2022/09/30 09:30:13;;;;;;;3.47;2.20;;;18.00;75.90;;;;;;5027905;28;20142;-76
2022/09/30 09:32:39;;;;;;;3.80;2.40;;;18.10;76.30;;;;;;5028937;28;20033;-76
2022/09/30 09:35:22;;;;;;;3.53;2.47;;;18.10;75.90;;;;;;5027577;28;20517;-76
2022/09/30 09:41:15;;;;;;;3.75;2.20;;;18.10;76.00;;;;;;5028958;28;20075;-76
2022/09/30 09:44:09;;;;;;;4.22;2.45;;;18.10;76.00;;;;;;5028304;28;20492;-76
2022/09/30 09:46:43;;;;;;;3.28;2.20;;;18.10;76.10;;;;;;5028542;28;20038;-77
2022/09/30 09:49:24;;;;;;;3.70;2.38;;;18.10;76.20;;;;;;5027564;28;20026;-75
2022/09/30 09:51:58;;;;;;;3.40;2.17;;;18.10;76.20;;;;;;5028096;28;20571;-76
2022/09/30 09:54:29;;;;;;;3.13;2.08;;;18.10;76.20;;;;;;5028893;28;20029;-76
2022/09/30 09:56:55;;;;;;;3.40;2.17;;;18.00;76.20;;;;;;5027082;28;20173;-75
2022/09/30 09:59:21;;;;;;;3.70;2.30;;;18.10;76.20;;;;;;5027629;28;20044;-75
2022/09/30 10:01:52;;;;;;;3.22;2.20;;;18.10;76.20;;;;;;5028310;28;20185;-76
2022/09/30 10:04:25;;;;;;;4.13;2.45;;;18.10;76.20;;;;;;5027231;28;20327;-77
2022/09/30 10:07:11;;;;;;;4.05;2.47;;;18.00;76.20;;;;;;5027101;28;20037;-77
2022/09/30 10:09:39;;;;;;;3.45;2.30;;;18.10;76.30;;;;;;5027892;28;20025;-76
2022/09/30 10:12:26;;;;;;;3.88;2.30;;;18.10;76.30;;;;;;5031301;28;20382;-76
2022/09/30 10:15:00;;;;;;;3.67;2.40;;;18.10;76.30;;;;;;5026931;28;20778;-76
2022/09/30 10:17:31;;;;;;;3.78;2.40;;;18.10;76.30;;;;;;5027072;28;20132;-76
2022/09/30 10:20:20;;;;;;;;;;;18.00;76.30;;;;;;5027441;28;20120;-76
2022/09/30 10:22:46;;;;;;;4.15;2.50;;;18.10;76.30;;;;;;5019405;28;19908;-77
2022/09/30 10:25:24;;;;;;;3.90;2.20;;;18.10;76.30;;;;;;5027031;28;20244;-76
2022/09/30 10:27:59;;;;;;;3.78;2.30;;;18.10;76.30;;;;;;5028323;28;20052;-77
2022/09/30 10:30:45;;;;;;;4.80;2.80;;;18.10;76.20;;;;;;5027126;28;20116;-76
2022/09/30 10:33:25;;;;;;;3.60;2.20;;;18.10;76.10;;;;;;5027707;28;20049;-77
2022/09/30 10:36:03;;;;;;;4.05;2.35;;;18.10;76.10;;;;;;5026690;28;20180;-77
2022/09/30 10:38:31;;;;;;;3.90;2.20;;;18.10;76.00;;;;;;5026832;28;20086;-77
2022/09/30 10:40:57;;;;;;;3.13;2.10;;;18.20;76.00;;;;;;5026573;28;20362;-76
2022/09/30 10:43:25;;;;;;;3.25;2.17;;;18.20;76.20;;;;;;5027316;28;20037;-76
2022/09/30 10:45:52;;;;;;;3.33;2.08;;;18.10;76.20;;;;;;5026908;28;20033;-75
2022/09/30 10:48:22;;;;;;;3.55;2.22;;;18.10;76.30;;;;;;5027964;28;20543;-76
2022/09/30 10:50:52;;;;;;;3.92;2.42;;;18.10;76.40;;;;;;5027705;28;20033;-76
2022/09/30 10:53:28;;;;;;;3.60;2.20;;;18.10;76.40;;;;;;5026834;28;20592;-76
2022/09/30 10:55:55;;;;;;;2.70;1.90;;;18.10;76.50;;;;;;5027016;28;20090;-76
2022/09/30 10:58:21;;;;;;;4.07;2.50;;;18.10;76.60;;;;;;5025906;28;20033;-77
2022/09/30 11:01:09;;;;;;;3.90;2.40;;;18.10;76.60;;;;;;5026761;28;20028;-76
2022/09/30 11:04:03;;;;;;;3.60;2.20;;;18.10;76.60;;;;;;5026313;28;20418;-77
2022/09/30 11:06:31;;;;;;;3.97;2.28;;;18.00;76.60;;;;;;5025325;28;20037;-76
2022/09/30 11:09:18;;;;;;;4.05;2.30;;;18.10;76.70;;;;;;5025039;28;20113;-76
2022/09/30 11:11:58;;;;;;;3.92;2.20;;;18.00;76.60;;;;;;5024921;28;20033;-75
2022/09/30 11:14:31;;;;;;;4.53;2.42;;;18.00;76.60;;;;;;5025499;28;20033;-76
2022/09/30 11:17:21;;;;;;;3.67;2.20;;;18.00;76.70;;;;;;5025737;28;20045;-76
2022/09/30 11:19:58;;;;;;;3.45;2.30;;;18.00;76.70;;;;;;5025678;28;20083;-75
2022/09/30 11:22:30;;;;;;;3.38;2.10;;;18.00;76.70;;;;;;5025386;28;20084;-76
2022/09/30 11:24:56;;;;;;;;;;;18.00;76.70;;;;;;5026040;28;20079;-75
2022/09/30 11:27:34;;;;;;;3.55;2.20;;;18.00;76.90;;;;;;5026819;28;19912;-76
2022/09/30 11:30:08;;;;;;;3.70;2.30;;;18.00;76.80;;;;;;5025543;28;20029;-76
2022/09/30 11:32:51;;;;;;;3.92;2.30;;;18.00;76.80;;;;;;5025204;28;20052;-76
2022/09/30 11:35:23;;;;;;;3.50;2.25;;;18.00;76.70;;;;;;5025376;28;20030;-75
2022/09/30 11:38:16;;;;;;;4.20;2.17;;;18.10;76.60;;;;;;5026779;28;20038;-76
2022/09/30 11:40:41;;;;;;;3.60;2.30;;;18.10;76.60;;;;;;5026505;28;20036;-76
2022/09/30 11:43:43;;;;;;;4.15;2.05;;;18.10;76.50;;;;;;5026372;28;20026;-76
2022/09/30 11:46:09;;;;;;;3.58;2.20;;;18.10;76.50;;;;;;5025138;28;20029;-75
2022/09/30 11:49:13;;;;;;;3.85;2.22;;;18.10;76.60;;;;;;5026345;28;20108;-76
2022/09/30 11:52:05;;;;;;;3.78;2.20;;;18.00;76.70;;;;;;5026416;28;20419;-76
2022/09/30 11:55:09;;;;;;;3.38;2.00;;;17.90;76.90;;;;;;5026364;28;20422;-75
2022/09/30 11:58:07;;;;;;;3.00;2.00;;;17.90;77.20;;;;;;4964771;28;20035;-76
2022/09/30 12:00:36;;;;;;;2.88;2.03;;;17.90;77.30;;;;;;5026504;28;20033;-75
2022/09/30 12:03:20;;;;;;;4.00;2.30;;;17.80;77.40;;;;;;5025706;28;20113;-76
2022/09/30 12:05:55;;;;;;;3.45;2.10;;;17.80;77.60;;;;;;5026599;28;20048;-76
2022/09/30 12:08:39;;;;;;;3.08;1.85;;;17.80;77.70;;;;;;5025018;28;20037;-76
2022/09/30 12:11:10;;;;;;;4.82;2.38;;;17.80;77.70;;;;;;5024575;28;20053;-76
2022/09/30 12:13:57;;;;;;;3.53;2.10;;;17.70;77.70;;;;;;5024498;28;20501;-76
2022/09/30 12:16:25;;;;;;;3.35;2.00;;;17.80;77.70;;;;;;5025779;28;20033;-76
2022/09/30 12:19:01;;;;;;;3.13;1.98;;;17.80;77.70;;;;;;5024684;28;20411;-76
2022/09/30 12:21:39;;;;;;;2.78;1.80;;;17.80;77.60;;;;;;5025480;28;20561;-76
2022/09/30 12:24:14;;;;;;;3.58;2.17;;;17.80;77.60;;;;;;5024596;28;20040;-76
2022/09/30 12:26:40;;;;;;;3.72;1.92;;;17.80;77.60;;;;;;5025863;28;20025;-75
2022/09/30 12:32:08;;;;;;;2.97;1.90;;;17.80;77.60;;;;;;5028616;28;20458;-76
2022/09/30 12:34:52;;;;;;;3.92;2.28;;;17.80;77.60;;;;;;5025222;28;20076;-76
2022/09/30 12:37:40;;;;;;;3.22;2.00;;;17.80;77.40;;;;;;5025553;28;20030;-76
2022/09/30 12:40:47;;;;;;;4.20;2.30;;;17.80;77.30;;;;;;5024984;28;20033;-75
2022/09/30 12:43:35;;;;;;;3.08;1.98;;;17.80;77.20;;;;;;5023961;28;20057;-76
2022/09/30 12:46:10;;;;;;;3.95;2.30;;;17.80;77.30;;;;;;5024200;28;20522;-76
2022/09/30 12:48:54;;;;;;;3.50;2.05;;;17.80;77.40;;;;;;5023933;28;20033;-75
2022/09/30 12:51:36;;;;;;;3.45;2.00;;;17.80;77.40;;;;;;5025259;28;20380;-76
2022/09/30 12:54:13;;;;;;;3.47;2.03;;;17.80;77.60;;;;;;5023668;28;20120;-75
2022/09/30 12:56:42;;;;;;;3.65;2.15;;;17.70;77.70;;;;;;5024110;28;20110;-76
2022/09/30 12:59:08;;;;;;;3.17;1.95;;;17.70;77.80;;;;;;5024783;28;20032;-75
2022/09/30 13:01:39;;;;;;;4.03;2.20;;;17.70;77.90;;;;;;5024166;28;20514;-76
2022/09/30 13:04:04;;;;;;;3.15;2.10;;;17.70;77.90;;;;;;5024642;28;20072;-76
2022/09/30 13:06:56;;;;;;;3.35;1.95;;;17.70;78.00;;;;;;5023682;28;20025;-77
2022/09/30 13:09:29;;;;;;;3.65;2.08;;;17.60;78.10;;;;;;5014735;28;20048;-76
2022/09/30 13:12:16;;;;;;;2.97;1.98;;;17.60;78.20;;;;;;5025082;28;20049;-76
2022/09/30 13:14:42;;;;;;;3.20;1.98;;;17.60;78.40;;;;;;5025008;28;20029;-76
2022/09/30 13:17:09;;;;;;;2.83;1.83;;;17.50;78.40;;;;;;5023556;28;20021;-75
2022/09/30 13:19:40;;;;;;;2.80;1.80;;;17.60;79.10;;;;;;5023585;28;20526;-75
2022/09/30 13:22:22;;;;;;;3.92;2.30;;;17.60;78.50;;;;;;5024836;28;20029;-75
2022/09/30 13:24:59;;;;;;;3.35;2.08;;;17.60;78.50;;;;;;5023364;28;20064;-76
2022/09/30 13:27:47;;;;;;;3.20;2.20;;;17.50;78.60;;;;;;5025028;28;20251;-76